sensor_id;sensor_type;location;lat;lon;timestamp;temperature;humidity
76759;DHT22;65701;45.588;5.186;2022-12-08T06:32:42;3.59;81.90
76759;DHT22;65701;45.588;5.186;2022-12-08T06:35:08;3.58;81.92
76759;DHT22;65701;45.588;5.186;2022-12-08T06:37:34;3.58;81.97
76759;DHT22;65701;45.588;5.186;2022-12-08T06:39:59;3.61;82.04
76759;DHT22;65701;45.588;5.186;2022-12-08T06:42:25;3.59;82.04
76759;DHT22;65701;45.588;5.186;2022-12-08T06:45:18;3.62;82.07
76759;DHT22;65701;45.588;5.186;2022-12-08T06:47:44;3.61;82.06
76759;DHT22;65701;45.588;5.186;2022-12-08T06:50:10;3.63;82.05
76759;DHT22;65701;45.588;5.186;2022-12-08T06:52:36;3.66;82.11
76759;DHT22;65701;45.588;5.186;2022-12-08T06:55:02;3.63;82.04
76759;DHT22;65701;45.588;5.186;2022-12-08T06:57:27;3.66;82.05
76759;DHT22;65701;45.588;5.186;2022-12-08T06:59:53;3.66;81.99
76759;DHT22;65701;45.588;5.186;2022-12-08T07:02:18;3.66;81.99
76759;DHT22;65701;45.588;5.186;2022-12-08T07:04:44;3.69;81.93
76759;DHT22;65701;45.588;5.186;2022-12-08T07:07:09;3.68;81.96
76759;DHT22;65701;45.588;5.186;2022-12-08T07:09:35;3.70;81.89
76759;DHT22;65701;45.588;5.186;2022-12-08T07:12:02;3.69;81.82
76759;DHT22;65701;45.588;5.186;2022-12-08T07:14:27;3.69;81.85
76759;DHT22;65701;45.588;5.186;2022-12-08T07:16:53;3.69;81.85
76759;DHT22;65701;45.588;5.186;2022-12-08T07:19:18;3.68;81.81
76759;DHT22;65701;45.588;5.186;2022-12-08T07:21:44;3.66;81.79
76759;DHT22;65701;45.588;5.186;2022-12-08T07:24:10;3.70;81.80
76759;DHT22;65701;45.588;5.186;2022-12-08T07:26:36;3.70;81.88
76759;DHT22;65701;45.588;5.186;2022-12-08T07:29:02;3.69;81.93
76759;DHT22;65701;45.588;5.186;2022-12-08T07:31:28;3.73;81.93
76759;DHT22;65701;45.588;5.186;2022-12-08T07:33:55;3.73;81.89
76759;DHT22;65701;45.588;5.186;2022-12-08T07:36:21;3.72;81.87
76759;DHT22;65701;45.588;5.186;2022-12-08T07:38:48;3.73;81.86
76759;DHT22;65701;45.588;5.186;2022-12-08T07:41:16;3.69;81.82
76759;DHT22;65701;45.588;5.186;2022-12-08T07:43:42;3.69;81.81
76759;DHT22;65701;45.588;5.186;2022-12-08T07:46:15;3.68;81.83
76759;DHT22;65701;45.588;5.186;2022-12-08T07:48:41;3.68;81.82
76759;DHT22;65701;45.588;5.186;2022-12-08T07:51:08;3.65;81.80
76759;DHT22;65701;45.588;5.186;2022-12-08T07:53:34;3.62;81.78
76759;DHT22;65701;45.588;5.186;2022-12-08T07:56:00;3.59;81.79
76759;DHT22;65701;45.588;5.186;2022-12-08T07:58:25;3.58;81.79
76759;DHT22;65701;45.588;5.186;2022-12-08T08:00:52;3.58;81.77
76759;DHT22;65701;45.588;5.186;2022-12-08T08:03:17;3.61;81.75
76759;DHT22;65701;45.588;5.186;2022-12-08T08:05:43;3.58;81.77
76759;DHT22;65701;45.588;5.186;2022-12-08T08:08:09;3.55;81.75
76759;DHT22;65701;45.588;5.186;2022-12-08T08:10:35;3.52;81.80
76759;DHT22;65701;45.588;5.186;2022-12-08T08:13:01;3.54;81.88
76759;DHT22;65701;45.588;5.186;2022-12-08T08:15:26;3.55;81.87
76759;DHT22;65701;45.588;5.186;2022-12-08T08:17:52;3.59;81.88
76759;DHT22;65701;45.588;5.186;2022-12-08T08:20:19;3.61;81.86
76759;DHT22;65701;45.588;5.186;2022-12-08T08:22:49;3.65;81.95
76759;DHT22;65701;45.588;5.186;2022-12-08T08:25:15;3.69;81.99
76759;DHT22;65701;45.588;5.186;2022-12-08T08:27:41;3.75;82.05
76759;DHT22;65701;45.588;5.186;2022-12-08T08:30:09;3.73;82.04
76759;DHT22;65701;45.588;5.186;2022-12-08T08:32:35;3.75;82.00
76759;DHT22;65701;45.588;5.186;2022-12-08T08:35:01;3.75;81.94
76759;DHT22;65701;45.588;5.186;2022-12-08T08:37:26;3.76;81.94
76759;DHT22;65701;45.588;5.186;2022-12-08T08:39:52;3.83;82.04
76759;DHT22;65701;45.588;5.186;2022-12-08T08:42:18;3.90;82.05
76759;DHT22;65701;45.588;5.186;2022-12-08T08:44:44;3.90;81.98
76759;DHT22;65701;45.588;5.186;2022-12-08T08:47:09;3.94;81.94
76759;DHT22;65701;45.588;5.186;2022-12-08T08:49:35;4.00;81.92
76759;DHT22;65701;45.588;5.186;2022-12-08T08:52:01;4.01;81.82
76759;DHT22;65701;45.588;5.186;2022-12-08T08:54:28;4.04;81.81
76759;DHT22;65701;45.588;5.186;2022-12-08T08:56:53;4.08;81.92
76759;DHT22;65701;45.588;5.186;2022-12-08T08:59:19;4.13;81.96
76759;DHT22;65701;45.588;5.186;2022-12-08T09:01:45;4.17;81.93
76759;DHT22;65701;45.588;5.186;2022-12-08T09:04:10;4.20;81.95
76759;DHT22;65701;45.588;5.186;2022-12-08T09:06:36;4.21;81.88
76759;DHT22;65701;45.588;5.186;2022-12-08T09:09:02;4.20;81.53
76759;DHT22;65701;45.588;5.186;2022-12-08T09:11:27;4.06;81.49
76759;DHT22;65701;45.588;5.186;2022-12-08T09:13:54;3.94;81.69
76759;DHT22;65701;45.588;5.186;2022-12-08T09:16:20;3.80;81.93
76759;DHT22;65701;45.588;5.186;2022-12-08T09:18:45;3.80;81.90
76759;DHT22;65701;45.588;5.186;2022-12-08T09:21:15;3.73;82.05
76759;DHT22;65701;45.588;5.186;2022-12-08T09:23:44;3.55;82.13
76759;DHT22;65701;45.588;5.186;2022-12-08T09:26:10;3.66;82.17
76759;DHT22;65701;45.588;5.186;2022-12-08T09:28:36;3.65;82.20
76759;DHT22;65701;45.588;5.186;2022-12-08T09:31:02;3.65;82.34
76759;DHT22;65701;45.588;5.186;2022-12-08T09:33:28;3.63;82.36
76759;DHT22;65701;45.588;5.186;2022-12-08T09:35:54;3.54;82.29
76759;DHT22;65701;45.588;5.186;2022-12-08T09:38:19;3.48;82.46
76759;DHT22;65701;45.588;5.186;2022-12-08T09:40:50;3.50;82.56
76759;DHT22;65701;45.588;5.186;2022-12-08T09:46:17;3.48;82.73
76759;DHT22;65701;45.588;5.186;2022-12-08T09:48:50;3.45;82.68
76759;DHT22;65701;45.588;5.186;2022-12-08T09:51:22;3.50;82.62
76759;DHT22;65701;45.588;5.186;2022-12-08T09:54:22;3.50;82.53
76759;DHT22;65701;45.588;5.186;2022-12-08T09:56:53;3.51;82.40
76759;DHT22;65701;45.588;5.186;2022-12-08T09:59:24;3.56;82.32
76759;DHT22;65701;45.588;5.186;2022-12-08T10:01:51;3.58;82.29
76759;DHT22;65701;45.588;5.186;2022-12-08T10:04:33;3.61;82.28
76759;DHT22;65701;45.588;5.186;2022-12-08T10:09:58;3.63;82.23
76759;DHT22;65701;45.588;5.186;2022-12-08T10:12:26;3.66;82.17
76759;DHT22;65701;45.588;5.186;2022-12-08T10:15:04;3.68;82.17
76759;DHT22;65701;45.588;5.186;2022-12-08T10:17:34;3.69;82.15
76759;DHT22;65701;45.588;5.186;2022-12-08T10:20:14;3.70;82.04
76759;DHT22;65701;45.588;5.186;2022-12-08T10:22:40;3.75;81.98
76759;DHT22;65701;45.588;5.186;2022-12-08T10:25:14;3.70;81.82
76759;DHT22;65701;45.588;5.186;2022-12-08T10:27:42;3.75;81.89
76759;DHT22;65701;45.588;5.186;2022-12-08T10:30:20;3.72;81.94
76759;DHT22;65701;45.588;5.186;2022-12-08T10:32:48;3.75;81.94
76759;DHT22;65701;45.588;5.186;2022-12-08T10:35:15;3.79;81.99
76759;DHT22;65701;45.588;5.186;2022-12-08T10:37:57;3.80;82.02
76759;DHT22;65701;45.588;5.186;2022-12-08T10:40:26;3.91;82.04
76759;DHT22;65701;45.588;5.186;2022-12-08T10:42:55;3.93;81.99
76759;DHT22;65701;45.588;5.186;2022-12-08T10:48:04;3.96;81.70
76759;DHT22;65701;45.588;5.186;2022-12-08T10:50:40;4.06;81.78
76759;DHT22;65701;45.588;5.186;2022-12-08T10:53:13;4.10;81.88
76759;DHT22;65701;45.588;5.186;2022-12-08T10:55:42;4.21;81.94
76759;DHT22;65701;45.588;5.186;2022-12-08T10:58:35;4.30;81.94
76759;DHT22;65701;45.588;5.186;2022-12-08T11:03:43;4.38;81.50
76759;DHT22;65701;45.588;5.186;2022-12-08T11:11:57;4.53;81.35
76759;DHT22;65701;45.588;5.186;2022-12-08T11:15:13;4.61;81.13
76759;DHT22;65701;45.588;5.186;2022-12-08T11:22:23;4.69;80.87
76759;DHT22;65701;45.588;5.186;2022-12-08T11:25:00;4.72;80.90
76759;DHT22;65701;45.588;5.186;2022-12-08T11:27:26;4.76;80.91
76759;DHT22;65701;45.588;5.186;2022-12-08T11:29:51;4.80;80.99
76759;DHT22;65701;45.588;5.186;2022-12-08T11:32:18;4.86;81.11
76759;DHT22;65701;45.588;5.186;2022-12-08T11:34:50;4.87;80.84
76759;DHT22;65701;45.588;5.186;2022-12-08T11:37:27;4.91;80.86
76759;DHT22;65701;45.588;5.186;2022-12-08T11:39:57;4.94;80.72
76759;DHT22;65701;45.588;5.186;2022-12-08T11:42:31;4.90;80.36
76759;DHT22;65701;45.588;5.186;2022-12-08T11:45:03;4.90;80.42
76759;DHT22;65701;45.588;5.186;2022-12-08T11:47:34;4.91;80.53
76759;DHT22;65701;45.588;5.186;2022-12-08T11:50:56;4.83;80.32
76759;DHT22;65701;45.588;5.186;2022-12-08T11:52:58;4.89;80.25
76759;DHT22;65701;45.588;5.186;2022-12-08T11:55:37;4.86;80.26
76759;DHT22;65701;45.588;5.186;2022-12-08T11:58:33;4.89;79.89
76759;DHT22;65701;45.588;5.186;2022-12-08T12:01:00;4.91;79.87
76759;DHT22;65701;45.588;5.186;2022-12-08T12:03:32;4.82;79.79
76759;DHT22;65701;45.588;5.186;2022-12-08T12:06:20;4.84;80.03
76759;DHT22;65701;45.588;5.186;2022-12-08T12:17:04;4.86;80.45
76759;DHT22;65701;45.588;5.186;2022-12-08T12:19:37;4.69;80.55
76759;DHT22;65701;45.588;5.186;2022-12-08T12:22:31;4.80;80.59
76759;DHT22;65701;45.588;5.186;2022-12-08T12:24:58;4.75;80.23
76759;DHT22;65701;45.588;5.186;2022-12-08T12:27:30;4.77;80.22
76759;DHT22;65701;45.588;5.186;2022-12-08T12:29:59;4.79;80.25
76759;DHT22;65701;45.588;5.186;2022-12-08T12:32:39;4.80;80.34
76759;DHT22;65701;45.588;5.186;2022-12-08T12:35:20;4.77;80.45
76759;DHT22;65701;45.588;5.186;2022-12-08T12:37:47;4.87;80.34
76759;DHT22;65701;45.588;5.186;2022-12-08T12:40:20;4.94;80.56
76759;DHT22;65701;45.588;5.186;2022-12-08T12:45:35;5.07;80.42
76759;DHT22;65701;45.588;5.186;2022-12-08T12:55:27;5.25;79.98
76759;DHT22;65701;45.588;5.186;2022-12-08T12:57:55;5.28;79.92
76759;DHT22;65701;45.588;5.186;2022-12-08T13:00:26;5.31;79.87
76759;DHT22;65701;45.588;5.186;2022-12-08T13:02:56;5.31;79.77
76759;DHT22;65701;45.588;5.186;2022-12-08T13:05:48;5.34;79.71
76759;DHT22;65701;45.588;5.186;2022-12-08T13:08:23;5.34;79.68
76759;DHT22;65701;45.588;5.186;2022-12-08T13:13:24;5.36;79.45
76759;DHT22;65701;45.588;5.186;2022-12-08T13:16:03;5.41;79.46
76759;DHT22;65701;45.588;5.186;2022-12-08T13:18:41;5.41;79.37
76759;DHT22;65701;45.588;5.186;2022-12-08T13:26:22;5.45;79.25
76759;DHT22;65701;45.588;5.186;2022-12-08T13:31:40;5.52;78.95
76759;DHT22;65701;45.588;5.186;2022-12-08T13:40:13;5.62;79.05
76759;DHT22;65701;45.588;5.186;2022-12-08T13:42:35;5.66;79.18
76759;DHT22;65701;45.588;5.186;2022-12-08T13:50:34;5.73;79.12
76759;DHT22;65701;45.588;5.186;2022-12-08T13:53:29;5.77;79.11
76759;DHT22;65701;45.588;5.186;2022-12-08T13:55:59;5.79;78.97
76759;DHT22;65701;45.588;5.186;2022-12-08T13:58:33;5.79;78.59
76759;DHT22;65701;45.588;5.186;2022-12-08T14:01:18;5.74;77.98
76759;DHT22;65701;45.588;5.186;2022-12-08T14:03:55;5.73;78.15
76759;DHT22;65701;45.588;5.186;2022-12-08T14:06:37;5.73;77.67
76759;DHT22;65701;45.588;5.186;2022-12-08T14:09:06;5.74;77.42
76759;DHT22;65701;45.588;5.186;2022-12-08T14:11:39;5.72;77.54
76759;DHT22;65701;45.588;5.186;2022-12-08T14:14:10;5.74;77.60
76759;DHT22;65701;45.588;5.186;2022-12-08T14:16:40;5.70;77.74
76759;DHT22;65701;45.588;5.186;2022-12-08T14:19:19;5.73;77.97
76759;DHT22;65701;45.588;5.186;2022-12-08T14:22:30;5.73;78.03
76759;DHT22;65701;45.588;5.186;2022-12-08T14:24:31;5.67;77.40
76759;DHT22;65701;45.588;5.186;2022-12-08T14:27:03;5.67;77.31
76759;DHT22;65701;45.588;5.186;2022-12-08T14:32:37;5.70;77.93
76759;DHT22;65701;45.588;5.186;2022-12-08T14:37:34;5.74;78.16
76759;DHT22;65701;45.588;5.186;2022-12-08T14:40:03;5.73;77.96
76759;DHT22;65701;45.588;5.186;2022-12-08T14:42:29;5.76;78.07
76759;DHT22;65701;45.588;5.186;2022-12-08T14:44:58;5.74;78.16
76759;DHT22;65701;45.588;5.186;2022-12-08T14:47:31;5.69;78.07
76759;DHT22;65701;45.588;5.186;2022-12-08T14:49:58;5.60;77.55
76759;DHT22;65701;45.588;5.186;2022-12-08T14:52:24;5.69;77.16
76759;DHT22;65701;45.588;5.186;2022-12-08T14:54:51;5.66;77.51
76759;DHT22;65701;45.588;5.186;2022-12-08T14:57:17;5.62;77.80
76759;DHT22;65701;45.588;5.186;2022-12-08T14:59:44;5.63;77.95
76759;DHT22;65701;45.588;5.186;2022-12-08T15:07:22;5.60;78.44
76759;DHT22;65701;45.588;5.186;2022-12-08T15:10:17;5.59;78.47
76759;DHT22;65701;45.588;5.186;2022-12-08T15:13:25;5.58;78.53
76759;DHT22;65701;45.588;5.186;2022-12-08T15:18:19;5.58;78.68
76759;DHT22;65701;45.588;5.186;2022-12-08T15:20:49;5.60;78.87
76759;DHT22;65701;45.588;5.186;2022-12-08T15:23:30;5.60;78.98
76759;DHT22;65701;45.588;5.186;2022-12-08T15:25:57;5.54;78.89
76759;DHT22;65701;45.588;5.186;2022-12-08T15:28:26;5.56;78.81
76759;DHT22;65701;45.588;5.186;2022-12-08T15:30:53;5.56;78.93
76759;DHT22;65701;45.588;5.186;2022-12-08T15:33:19;5.52;78.91
76759;DHT22;65701;45.588;5.186;2022-12-08T15:35:46;5.54;78.94
76759;DHT22;65701;45.588;5.186;2022-12-08T15:38:17;5.51;78.99
76759;DHT22;65701;45.588;5.186;2022-12-08T15:40:44;5.51;79.05
76759;DHT22;65701;45.588;5.186;2022-12-08T15:43:10;5.49;79.10
76759;DHT22;65701;45.588;5.186;2022-12-08T15:45:36;5.56;79.23
76759;DHT22;65701;45.588;5.186;2022-12-08T15:48:02;5.56;79.32
76759;DHT22;65701;45.588;5.186;2022-12-08T15:50:27;5.58;79.41
76759;DHT22;65701;45.588;5.186;2022-12-08T15:52:53;5.56;79.44
76759;DHT22;65701;45.588;5.186;2022-12-08T15:55:20;5.62;79.42
76759;DHT22;65701;45.588;5.186;2022-12-08T15:57:48;5.60;79.39
76759;DHT22;65701;45.588;5.186;2022-12-08T16:02:47;5.59;79.28
76759;DHT22;65701;45.588;5.186;2022-12-08T16:05:13;5.58;79.34
76759;DHT22;65701;45.588;5.186;2022-12-08T16:07:39;5.59;79.43
76759;DHT22;65701;45.588;5.186;2022-12-08T16:10:06;5.60;79.54
76759;DHT22;65701;45.588;5.186;2022-12-08T16:12:31;5.66;79.59
76759;DHT22;65701;45.588;5.186;2022-12-08T16:15:15;5.66;79.67
76759;DHT22;65701;45.588;5.186;2022-12-08T16:17:41;5.66;79.70
76759;DHT22;65701;45.588;5.186;2022-12-08T16:20:12;5.63;79.65
76759;DHT22;65701;45.588;5.186;2022-12-08T16:22:37;5.63;79.63
76759;DHT22;65701;45.588;5.186;2022-12-08T16:25:04;5.60;79.51
76759;DHT22;65701;45.588;5.186;2022-12-08T16:27:32;5.59;79.50
76759;DHT22;65701;45.588;5.186;2022-12-08T16:29:59;5.58;79.56
76759;DHT22;65701;45.588;5.186;2022-12-08T16:32:25;5.59;79.60
76759;DHT22;65701;45.588;5.186;2022-12-08T16:34:52;5.58;79.72
76759;DHT22;65701;45.588;5.186;2022-12-08T16:37:19;5.59;79.76
76759;DHT22;65701;45.588;5.186;2022-12-08T16:39:45;5.58;79.73
76759;DHT22;65701;45.588;5.186;2022-12-08T16:42:16;5.58;79.76
76759;DHT22;65701;45.588;5.186;2022-12-08T16:47:30;5.58;79.91
76759;DHT22;65701;45.588;5.186;2022-12-08T16:49:56;5.59;79.98
76759;DHT22;65701;45.588;5.186;2022-12-08T16:52:21;5.59;80.02
76759;DHT22;65701;45.588;5.186;2022-12-08T16:54:47;5.60;80.03
76759;DHT22;65701;45.588;5.186;2022-12-08T16:57:12;5.59;80.02
76759;DHT22;65701;45.588;5.186;2022-12-08T16:59:38;5.56;80.12
76759;DHT22;65701;45.588;5.186;2022-12-08T17:02:04;5.59;80.07
76759;DHT22;65701;45.588;5.186;2022-12-08T17:04:30;5.58;80.07
76759;DHT22;65701;45.588;5.186;2022-12-08T17:06:56;5.58;80.10
76759;DHT22;65701;45.588;5.186;2022-12-08T17:09:23;5.56;80.10
76759;DHT22;65701;45.588;5.186;2022-12-08T17:11:48;5.58;80.07
76759;DHT22;65701;45.588;5.186;2022-12-08T17:14:14;5.54;80.04
76759;DHT22;65701;45.588;5.186;2022-12-08T17:16:40;5.52;80.04
76759;DHT22;65701;45.588;5.186;2022-12-08T17:19:07;5.55;80.06
76759;DHT22;65701;45.588;5.186;2022-12-08T17:21:32;5.54;80.03
76759;DHT22;65701;45.588;5.186;2022-12-08T17:23:58;5.54;80.02
76759;DHT22;65701;45.588;5.186;2022-12-08T17:26:23;5.49;79.99
76759;DHT22;65701;45.588;5.186;2022-12-08T17:28:49;5.46;80.01
76759;DHT22;65701;45.588;5.186;2022-12-08T17:31:15;5.44;80.06
76759;DHT22;65701;45.588;5.186;2022-12-08T17:33:41;5.39;80.11
76759;DHT22;65701;45.588;5.186;2022-12-08T17:36:13;5.38;80.18
76759;DHT22;65701;45.588;5.186;2022-12-08T17:38:39;5.36;80.15
76759;DHT22;65701;45.588;5.186;2022-12-08T17:41:07;5.31;80.15
76759;DHT22;65701;45.588;5.186;2022-12-08T17:43:33;5.30;80.12
76759;DHT22;65701;45.588;5.186;2022-12-08T17:45:58;5.23;80.11
76759;DHT22;65701;45.588;5.186;2022-12-08T17:48:25;5.21;80.18
76759;DHT22;65701;45.588;5.186;2022-12-08T17:50:51;5.21;80.20
76759;DHT22;65701;45.588;5.186;2022-12-08T17:53:18;5.20;80.27
76759;DHT22;65701;45.588;5.186;2022-12-08T17:55:51;5.20;80.27
76759;DHT22;65701;45.588;5.186;2022-12-08T17:58:18;5.17;80.24
76759;DHT22;65701;45.588;5.186;2022-12-08T18:00:43;5.11;80.30
76759;DHT22;65701;45.588;5.186;2022-12-08T18:03:09;5.11;80.24
76759;DHT22;65701;45.588;5.186;2022-12-08T18:05:34;5.10;80.24
76759;DHT22;65701;45.588;5.186;2022-12-08T18:08:00;5.07;80.25
76759;DHT22;65701;45.588;5.186;2022-12-08T18:10:26;5.07;80.31
76759;DHT22;65701;45.588;5.186;2022-12-08T18:12:51;5.04;80.28
76759;DHT22;65701;45.588;5.186;2022-12-08T18:15:18;5.03;80.29
76759;DHT22;65701;45.588;5.186;2022-12-08T18:17:44;5.00;80.27
76759;DHT22;65701;45.588;5.186;2022-12-08T18:20:11;4.97;80.34
76759;DHT22;65701;45.588;5.186;2022-12-08T18:22:37;4.97;80.44
76759;DHT22;65701;45.588;5.186;2022-12-08T18:25:04;5.00;80.55
76759;DHT22;65701;45.588;5.186;2022-12-08T18:27:31;4.97;80.53
76759;DHT22;65701;45.588;5.186;2022-12-08T18:29:57;4.99;80.53
76759;DHT22;65701;45.588;5.186;2022-12-08T18:32:23;4.99;80.48
76759;DHT22;65701;45.588;5.186;2022-12-08T18:34:49;4.99;80.48
76759;DHT22;65701;45.588;5.186;2022-12-08T18:37:15;5.00;80.49
76759;DHT22;65701;45.588;5.186;2022-12-08T18:39:40;4.97;80.50
76759;DHT22;65701;45.588;5.186;2022-12-08T18:42:06;4.97;80.57
76759;DHT22;65701;45.588;5.186;2022-12-08T18:44:51;5.00;80.59
76759;DHT22;65701;45.588;5.186;2022-12-08T18:47:18;4.99;80.59
76759;DHT22;65701;45.588;5.186;2022-12-08T18:49:44;5.00;80.57
76759;DHT22;65701;45.588;5.186;2022-12-08T18:52:09;4.96;80.53
76759;DHT22;65701;45.588;5.186;2022-12-08T18:54:36;4.99;80.52
76759;DHT22;65701;45.588;5.186;2022-12-08T18:57:03;5.00;80.60
76759;DHT22;65701;45.588;5.186;2022-12-08T18:59:29;4.97;80.55
76759;DHT22;65701;45.588;5.186;2022-12-08T19:01:55;4.97;80.56
76759;DHT22;65701;45.588;5.186;2022-12-08T19:04:22;4.97;80.54
76759;DHT22;65701;45.588;5.186;2022-12-08T19:06:48;4.97;80.50
76759;DHT22;65701;45.588;5.186;2022-12-08T19:09:14;4.94;80.57
76759;DHT22;65701;45.588;5.186;2022-12-08T19:11:40;4.96;80.63
76759;DHT22;65701;45.588;5.186;2022-12-08T19:14:06;4.93;80.60
76759;DHT22;65701;45.588;5.186;2022-12-08T19:16:32;4.91;80.58
76759;DHT22;65701;45.588;5.186;2022-12-08T19:18:57;4.91;80.48
76759;DHT22;65701;45.588;5.186;2022-12-08T19:21:23;4.90;80.47
76759;DHT22;65701;45.588;5.186;2022-12-08T19:23:50;4.91;80.45
76759;DHT22;65701;45.588;5.186;2022-12-08T19:26:17;4.91;80.52
76759;DHT22;65701;45.588;5.186;2022-12-08T19:28:44;4.93;80.49
76759;DHT22;65701;45.588;5.186;2022-12-08T19:31:09;4.93;80.50
76759;DHT22;65701;45.588;5.186;2022-12-08T19:33:36;4.89;80.48
76759;DHT22;65701;45.588;5.186;2022-12-08T19:36:06;4.90;80.45
76759;DHT22;65701;45.588;5.186;2022-12-08T19:38:33;4.84;80.43
76759;DHT22;65701;45.588;5.186;2022-12-08T19:41:17;4.82;80.41
76759;DHT22;65701;45.588;5.186;2022-12-08T19:44:01;4.82;80.45
76759;DHT22;65701;45.588;5.186;2022-12-08T19:46:45;4.80;80.44
76759;DHT22;65701;45.588;5.186;2022-12-08T19:49:11;4.79;80.43
76759;DHT22;65701;45.588;5.186;2022-12-08T19:51:36;4.79;80.47
76759;DHT22;65701;45.588;5.186;2022-12-08T19:54:02;4.76;80.45
76759;DHT22;65701;45.588;5.186;2022-12-08T19:56:27;4.76;80.46
76759;DHT22;65701;45.588;5.186;2022-12-08T19:58:53;4.75;80.48
76759;DHT22;65701;45.588;5.186;2022-12-08T20:01:18;4.72;80.44
76759;DHT22;65701;45.588;5.186;2022-12-08T20:03:44;4.69;80.45
76759;DHT22;65701;45.588;5.186;2022-12-08T20:06:13;4.66;80.45
76759;DHT22;65701;45.588;5.186;2022-12-08T20:08:39;4.61;80.50
76759;DHT22;65701;45.588;5.186;2022-12-08T20:11:05;4.58;80.66
76759;DHT22;65701;45.588;5.186;2022-12-08T20:13:30;4.53;80.70
76759;DHT22;65701;45.588;5.186;2022-12-08T20:16:05;4.53;80.69
76759;DHT22;65701;45.588;5.186;2022-12-08T20:18:34;4.52;80.66
76759;DHT22;65701;45.588;5.186;2022-12-08T20:21:00;4.52;80.68
76759;DHT22;65701;45.588;5.186;2022-12-08T20:23:25;4.52;80.72
76759;DHT22;65701;45.588;5.186;2022-12-08T20:25:51;4.55;80.73
76759;DHT22;65701;45.588;5.186;2022-12-08T20:28:16;4.53;80.73
76759;DHT22;65701;45.588;5.186;2022-12-08T20:30:43;4.56;80.81
76759;DHT22;65701;45.588;5.186;2022-12-08T20:33:18;4.59;80.82
76759;DHT22;65701;45.588;5.186;2022-12-08T20:35:45;4.56;80.75
76759;DHT22;65701;45.588;5.186;2022-12-08T20:38:11;4.56;80.71
76759;DHT22;65701;45.588;5.186;2022-12-08T20:40:43;4.48;80.63
76759;DHT22;65701;45.588;5.186;2022-12-08T20:43:11;4.45;80.63
76759;DHT22;65701;45.588;5.186;2022-12-08T20:45:37;4.45;80.70
76759;DHT22;65701;45.588;5.186;2022-12-08T20:48:03;4.44;80.67
76759;DHT22;65701;45.588;5.186;2022-12-08T20:50:29;4.45;80.72
76759;DHT22;65701;45.588;5.186;2022-12-08T20:52:55;4.41;80.74
76759;DHT22;65701;45.588;5.186;2022-12-08T20:55:21;4.42;80.73
76759;DHT22;65701;45.588;5.186;2022-12-08T20:57:47;4.38;80.77
